Time;durP1;ratioP1;P1;durP2;ratioP2;P2;SDS_P1;SDS_P2;PMS_P1;PMS_P2;Temp;Humidity;BMP_temperature;BMP_pressure;BME280_temperature;BME280_humidity;BME280_pressure;Samples;Min_cycle;Max_cycle;Signal;HPM_P1;HPM_P2
2022/08/26 00:02:18;;;;;;;8.68;2.65;;;;;;;26.38;39.05;101655.19;5094865;28;20069;-80
2022/08/26 00:04:43;;;;;;;5.40;2.50;;;;;;;26.34;39.06;101657.16;5094820;28;20016;-81
2022/08/26 00:07:09;;;;;;;5.65;2.67;;;;;;;26.35;39.02;101657.97;5094756;28;20020;-81
2022/08/26 00:09:35;;;;;;;4.28;1.98;;;;;;;26.35;39.06;101655.16;5094835;28;20036;-79
2022/08/26 00:12:01;;;;;;;6.55;2.67;;;;;;;26.35;39.26;101650.34;5094568;28;20438;-79
2022/08/26 00:14:26;;;;;;;8.18;2.05;;;;;;;26.34;39.22;101648.75;5094365;28;20048;-79
2022/08/26 00:16:52;;;;;;;8.68;2.00;;;;;;;26.33;39.21;101651.97;5094293;28;20020;-80
2022/08/26 00:19:19;;;;;;;5.70;1.73;;;;;;;26.32;39.40;101653.97;5094686;28;20447;-81
2022/08/26 00:21:46;;;;;;;4.53;1.50;;;;;;;26.34;39.19;101648.75;5094530;28;20024;-81
2022/08/26 00:24:12;;;;;;;6.03;1.50;;;;;;;26.32;39.50;101642.75;5094461;28;20021;-79
2022/08/26 00:26:38;;;;;;;4.65;1.42;;;;;;;26.32;39.25;101642.75;5093935;28;20551;-80
2022/08/26 00:29:04;;;;;;;5.32;1.45;;;;;;;26.34;39.13;101645.94;5094458;28;20031;-80
2022/08/26 00:31:30;;;;;;;6.00;1.98;;;;;;;26.34;39.20;101640.34;5093112;28;20379;-80
2022/08/26 00:33:56;;;;;;;2.78;1.63;;;;;;;26.29;39.20;101635.13;5094157;28;20146;-82
2022/08/26 00:36:22;;;;;;;7.78;1.77;;;;;;;26.28;39.40;101639.13;5092932;28;20535;-79
2022/08/26 00:38:48;;;;;;;6.47;1.90;;;;;;;26.26;39.28;101628.34;5094273;28;20381;-81
2022/08/26 00:41:14;;;;;;;3.65;1.48;;;;;;;26.26;39.22;101635.94;5094137;28;20032;-80
2022/08/26 00:43:40;;;;;;;9.68;3.10;;;;;;;26.17;39.53;101627.94;5092834;28;20039;-80
2022/08/26 00:46:22;;;;;;;4.78;1.80;;;;;;;26.02;39.54;101628.31;5093782;28;20067;-80
2022/08/26 00:48:51;;;;;;;5.80;1.80;;;;;;;26.02;39.49;101636.72;5093576;28;20035;-79
2022/08/26 00:51:26;;;;;;;5.20;1.20;;;;;;;26.10;39.36;101627.13;5093819;28;20020;-79
2022/08/26 00:54:02;;;;;;;6.55;1.95;;;;;;;26.06;39.08;101621.50;5093860;28;20051;-87
2022/08/26 00:56:35;;;;;;;6.43;1.55;;;;;;;26.04;39.70;101623.13;5093904;28;20016;-79
2022/08/26 00:59:06;;;;;;;6.75;1.90;;;;;;;25.98;39.67;101617.91;5093968;28;20074;-79
2022/08/26 01:01:32;;;;;;;6.68;1.63;;;;;;;25.97;39.40;101613.50;5092509;28;20016;-79
2022/08/26 01:03:59;;;;;;;5.15;1.67;;;;;;;25.98;39.37;101623.50;5093711;28;20028;-80
2022/08/26 01:06:26;;;;;;;4.45;1.40;;;;;;;25.97;39.19;101616.31;5092507;28;20020;-80
2022/08/26 01:08:52;;;;;;;4.20;1.55;;;;;;;25.95;39.38;101620.72;5093717;28;20031;-80
2022/08/26 01:11:18;;;;;;;4.50;2.08;;;;;;;25.89;39.66;101628.69;5093653;28;20024;-86
2022/08/26 01:13:46;;;;;;;8.65;2.17;;;;;;;25.84;39.60;101628.28;5092134;28;20094;-79
2022/08/26 01:16:14;;;;;;;8.20;1.95;;;;;;;25.84;39.42;101631.88;5093378;28;20063;-79
2022/08/26 01:18:42;;;;;;;7.43;1.95;;;;;;;25.78;39.76;101633.47;5093677;28;20016;-80
2022/08/26 01:21:35;;;;;;;4.95;1.90;;;;;;;25.76;39.84;101644.25;5093637;28;20016;-79
2022/08/26 01:24:01;;;;;;;10.68;2.40;;;;;;;25.73;39.55;101643.03;5092229;28;20050;-80
2022/08/26 01:26:31;;;;;;;6.78;2.08;;;;;;;25.64;39.82;101648.19;5092600;28;20082;-81
2022/08/26 01:29:00;;;;;;;5.60;2.00;;;;;;;25.62;39.67;101647.78;5093419;28;20024;-80
2022/08/26 01:31:30;;;;;;;5.15;1.77;;;;;;;25.63;40.02;101643.00;5093484;28;20028;-81
2022/08/26 01:34:00;;;;;;;7.05;2.53;;;;;;;25.65;39.90;101635.78;5093480;28;20061;-79
2022/08/26 01:36:26;;;;;;;5.97;1.88;;;;;;;25.66;39.71;101640.19;5092063;28;20386;-79
2022/08/26 01:38:53;;;;;;;7.78;3.70;;;;;;;25.66;39.74;101642.19;5093455;28;20496;-83
2022/08/26 01:41:20;;;;;;;6.95;2.33;;;;;;;25.68;39.56;101642.59;5091883;28;20024;-80
2022/08/26 01:43:52;;;;;;;5.43;2.38;;;;;;;25.60;40.13;101644.56;5093195;28;20024;-80
2022/08/26 01:46:21;;;;;;;6.68;1.80;;;;;;;25.60;39.78;101643.75;5092930;28;20028;-80
2022/08/26 01:48:48;;;;;;;4.72;1.85;;;;;;;25.61;40.02;101643.38;5093044;28;20020;-80
2022/08/26 01:51:15;;;;;;;7.00;2.30;;;;;;;25.55;40.11;101652.56;5092992;28;20035;-84
2022/08/26 01:53:42;;;;;;;6.47;2.63;;;;;;;25.55;40.32;101646.97;5093026;28;20052;-80
2022/08/26 01:56:11;;;;;;;4.75;1.98;;;;;;;25.52;40.38;101648.53;5092988;28;20020;-79
2022/08/26 01:58:52;;;;;;;11.45;3.28;;;;;;;25.51;40.30;101646.13;5092972;28;20475;-80
2022/08/26 02:01:19;;;;;;;10.10;2.33;;;;;;;25.48;40.46;101658.13;5091686;28;20043;-79
2022/08/26 02:03:53;;;;;;;5.00;1.63;;;;;;;25.41;40.63;101659.69;5093032;28;20027;-80
2022/08/26 02:06:18;;;;;;;8.07;1.98;;;;;;;25.48;40.38;101658.13;5089744;28;20030;-87
2022/08/26 02:08:47;;;;;;;9.75;2.78;;;;;;;25.62;40.14;101663.78;5092603;28;20020;-79
2022/08/26 02:11:14;;;;;;;7.38;2.80;;;;;;;25.68;40.06;101664.97;5092981;28;20099;-82
2022/08/26 02:13:48;;;;;;;7.63;3.47;;;;;;;25.62;40.33;101664.59;5092527;28;20055;-85
2022/08/26 02:16:21;;;;;;;10.30;2.63;;;;;;;25.55;40.41;101674.94;5091600;28;20020;-89
2022/08/26 02:18:47;;;;;;;7.47;2.22;;;;;;;25.42;40.81;101675.28;5093882;28;20077;-91
2022/08/26 02:21:13;;;;;;;7.18;1.92;;;;;;;25.55;40.87;101669.34;5091850;28;20432;-81
2022/08/26 02:23:40;;;;;;;5.85;2.22;;;;;;;25.59;40.80;101673.75;5092806;28;20058;-86
2022/08/26 02:26:17;;;;;;;6.30;2.17;;;;;;;25.63;40.98;101676.56;5092538;28;20036;-83
2022/08/26 02:28:57;;;;;;;5.53;2.60;;;;;;;25.60;41.24;101675.34;5091355;28;20020;-84
2022/08/26 02:31:23;;;;;;;6.60;1.90;;;;;;;25.48;41.57;101669.31;5091375;28;20120;-84
2022/08/26 02:33:49;;;;;;;6.45;2.92;;;;;;;25.42;42.08;101672.47;5091219;28;20028;-84
2022/08/26 02:36:20;;;;;;;5.20;1.83;;;;;;;25.34;42.46;101672.84;5093664;28;20081;-83
2022/08/26 02:38:45;;;;;;;7.03;1.88;;;;;;;25.30;42.47;101669.22;5095311;28;20021;-83
2022/08/26 02:41:11;;;;;;;8.98;2.88;;;;;;;25.27;42.64;101678.41;5091856;28;20020;-83
2022/08/26 02:43:37;;;;;;;4.65;2.20;;;;;;;25.29;42.58;101676.81;5093199;28;20036;-84
2022/08/26 02:46:03;;;;;;;4.55;1.88;;;;;;;25.29;42.87;101662.81;5094900;28;20070;-84
2022/08/26 02:48:29;;;;;;;5.55;2.42;;;;;;;25.17;42.98;101668.75;5095110;28;20485;-84
2022/08/26 02:50:55;;;;;;;14.52;3.85;;;;;;;25.12;43.29;101672.72;5096248;28;20099;-83
2022/08/26 02:53:20;;;;;;;6.78;2.47;;;;;;;25.15;43.09;101671.91;5095760;28;20024;-84
2022/08/26 02:55:48;;;;;;;7.57;2.40;;;;;;;25.18;43.08;101671.16;5095156;28;20016;-84
2022/08/26 02:58:14;;;;;;;7.82;2.42;;;;;;;25.12;43.29;101671.91;5095054;28;20078;-84
2022/08/26 03:00:40;;;;;;;8.63;3.08;;;;;;;25.08;43.77;101674.69;5094950;28;20390;-84
2022/08/26 03:03:06;;;;;;;8.02;2.88;;;;;;;25.02;43.43;101683.81;5096195;28;20016;-84
2022/08/26 03:05:32;;;;;;;6.45;2.67;;;;;;;24.95;43.52;101678.97;5095474;28;20470;-83
2022/08/26 03:07:58;;;;;;;7.60;2.53;;;;;;;24.95;43.84;101683.75;5093840;28;20016;-84
2022/08/26 03:10:24;;;;;;;7.10;2.22;;;;;;;24.88;43.66;101682.50;5093798;28;20136;-83
2022/08/26 03:12:49;;;;;;;5.00;2.03;;;;;;;24.86;43.84;101684.06;5093550;28;20106;-83
2022/08/26 03:15:17;;;;;;;8.77;2.45;;;;;;;24.87;43.99;101683.72;5093465;28;20057;-83
2022/08/26 03:17:43;;;;;;;9.02;2.78;;;;;;;24.87;44.23;101689.31;5093295;28;20035;-83
2022/08/26 03:20:10;;;;;;;10.45;2.90;;;;;;;24.87;44.29;101686.50;5093597;28;20020;-83
2022/08/26 03:22:37;;;;;;;7.57;2.05;;;;;;;24.89;44.36;101684.13;5093631;28;20028;-82
2022/08/26 03:25:06;;;;;;;5.53;2.30;;;;;;;24.88;44.41;101688.09;5093395;28;20123;-84
2022/08/26 03:27:32;;;;;;;9.05;2.40;;;;;;;24.90;44.39;101679.31;5093355;28;20024;-83
2022/08/26 03:32:43;;;;;;;14.98;4.18;;;;;;;24.92;44.49;101674.94;5091803;28;20080;-83
2022/08/26 03:35:09;;;;;;;6.50;2.40;;;;;;;25.00;44.49;101672.19;5093252;28;20123;-84
2022/08/26 03:37:35;;;;;;;5.40;2.17;;;;;;;25.02;44.19;101670.63;5093245;28;20016;-83
2022/08/26 03:40:00;;;;;;;9.23;2.20;;;;;;;25.00;44.31;101670.19;5093344;28;20039;-84
2022/08/26 03:42:27;;;;;;;7.13;2.13;;;;;;;25.06;44.11;101671.47;5093220;28;20020;-84
2022/08/26 03:44:52;;;;;;;6.45;2.30;;;;;;;25.05;44.54;101663.47;5093182;28;20382;-84
2022/08/26 03:47:19;;;;;;;6.25;2.20;;;;;;;25.07;44.19;101666.69;5093828;28;20032;-83
2022/08/26 03:49:44;;;;;;;10.27;2.45;;;;;;;25.03;44.34;101665.84;5093406;28;20121;-82
2022/08/26 03:52:10;;;;;;;7.55;2.45;;;;;;;25.02;44.56;101665.03;5093846;28;20062;-80
2022/08/26 03:54:36;;;;;;;7.43;2.47;;;;;;;25.08;44.66;101662.69;5093035;28;20040;-82
2022/08/26 03:57:01;;;;;;;7.63;2.63;;;;;;;25.10;44.74;101665.91;5109949;28;20028;-83
2022/08/26 03:59:27;;;;;;;4.60;1.98;;;;;;;25.11;44.69;101664.72;5092650;28;20062;-81
2022/08/26 04:01:53;;;;;;;5.10;2.38;;;;;;;24.99;44.94;101665.00;5093034;28;20360;-83
2022/08/26 04:04:19;;;;;;;6.75;2.40;;;;;;;25.05;44.49;101658.69;5109751;28;20020;-82
2022/08/26 04:06:45;;;;;;;4.68;2.17;;;;;;;25.07;44.58;101655.50;5094191;28;20027;-82
2022/08/26 04:09:18;;;;;;;6.82;2.60;;;;;;;25.01;44.93;101655.03;5094020;28;20031;-81
2022/08/26 04:11:46;;;;;;;9.82;3.45;;;;;;;25.00;44.69;101656.22;5093890;28;20162;-82
2022/08/26 04:14:20;;;;;;;4.70;2.15;;;;;;;25.06;44.87;101656.69;5092443;28;20039;-81
2022/08/26 04:16:47;;;;;;;6.53;2.70;;;;;;;24.97;44.95;101661.81;5092394;28;20028;-81
2022/08/26 04:19:14;;;;;;;5.65;2.97;;;;;;;24.91;45.38;101653.78;5092452;28;20024;-83
2022/08/26 04:21:40;;;;;;;6.10;2.80;;;;;;;24.80;45.53;101658.50;5093823;28;20020;-82
2022/08/26 04:24:08;;;;;;;7.45;2.38;;;;;;;24.91;45.29;101656.56;5092273;28;20024;-82
2022/08/26 04:26:37;;;;;;;6.05;2.67;;;;;;;24.89;45.18;101656.16;5092473;28;20031;-82
2022/08/26 04:29:09;;;;;;;4.93;2.78;;;;;;;24.91;44.91;101659.38;5092375;28;20034;-83
2022/08/26 04:31:35;;;;;;;7.13;3.08;;;;;;;24.88;45.34;101654.56;5093492;28;20023;-83
2022/08/26 04:34:01;;;;;;;8.68;2.60;;;;;;;24.80;45.53;101658.50;5093505;28;20035;-83
2022/08/26 04:36:27;;;;;;;6.18;2.58;;;;;;;24.89;45.38;101658.97;5092838;28;20027;-83
2022/08/26 04:38:54;;;;;;;6.18;2.45;;;;;;;24.87;45.46;101657.75;5093139;28;20387;-81
2022/08/26 04:41:20;;;;;;;8.80;2.92;;;;;;;24.84;45.28;101652.94;5094245;28;20024;-82
2022/08/26 04:43:47;;;;;;;4.65;1.90;;;;;;;24.86;45.58;101658.91;5093015;28;20031;-82
2022/08/26 04:46:20;;;;;;;4.72;1.95;;;;;;;24.82;45.47;101661.69;5109766;28;20032;-82
2022/08/26 04:48:47;;;;;;;5.90;1.90;;;;;;;24.78;45.73;101660.84;5094040;28;20036;-82
2022/08/26 04:51:13;;;;;;;3.72;1.90;;;;;;;24.82;45.55;101660.91;5092794;28;20466;-82
2022/08/26 04:53:39;;;;;;;3.38;1.40;;;;;;;24.85;45.35;101660.91;5092728;28;20173;-82
2022/08/26 04:56:05;;;;;;;5.20;1.75;;;;;;;24.79;45.32;101665.28;5094050;28;20091;-83
2022/08/26 04:58:31;;;;;;;3.15;1.33;;;;;;;24.79;45.43;101656.09;5091869;28;20020;-82
2022/08/26 05:00:57;;;;;;;7.90;1.55;;;;;;;24.77;45.46;101659.25;5092820;28;20056;-83
2022/08/26 05:03:25;;;;;;;6.93;1.73;;;;;;;24.76;45.21;101663.25;5092606;28;20060;-82
2022/08/26 05:05:50;;;;;;;2.90;1.33;;;;;;;24.81;45.29;101660.09;5092541;28;20058;-81
2022/08/26 05:08:18;;;;;;;1.25;0.85;;;;;;;24.98;44.72;101660.59;5092486;28;20035;-82
2022/08/26 05:10:49;;;;;;;3.03;1.55;;;;;;;25.02;44.63;101655.84;5092459;28;20035;-82
2022/08/26 05:13:18;;;;;;;4.53;1.20;;;;;;;24.98;44.46;101666.19;5093542;28;20042;-83
2022/08/26 05:15:45;;;;;;;5.18;1.30;;;;;;;24.79;45.16;101668.09;5092228;28;20386;-81
2022/08/26 05:18:12;;;;;;;7.00;1.25;;;;;;;24.69;45.26;101671.56;5093562;28;20028;-82
2022/08/26 05:20:40;;;;;;;2.58;1.38;;;;;;;24.73;45.26;101680.00;5092388;28;20118;-82
2022/08/26 05:23:06;;;;;;;4.57;1.27;;;;;;;24.74;45.12;101681.59;5092190;28;20107;-82
2022/08/26 05:25:36;;;;;;;4.22;0.88;;;;;;;24.90;44.82;101690.50;5093479;28;20034;-82
2022/08/26 05:28:02;;;;;;;3.47;0.75;;;;;;;24.95;44.67;101686.56;5092182;28;20066;-83
2022/08/26 05:30:30;;;;;;;3.33;1.65;;;;;;;24.85;44.66;101693.66;5092194;28;20427;-82
2022/08/26 05:32:55;;;;;;;2.65;1.33;;;;;;;24.89;44.72;101689.72;5092052;28;20088;-83
2022/08/26 05:35:21;;;;;;;5.20;1.23;;;;;;;24.79;44.87;101689.63;5091967;28;20024;-82
2022/08/26 05:37:48;;;;;;;7.25;1.48;;;;;;;24.86;44.46;101690.50;5093302;28;20024;-82
2022/08/26 05:40:14;;;;;;;2.65;1.77;;;;;;;24.77;44.70;101687.22;5093240;28;20042;-82
2022/08/26 05:42:40;;;;;;;2.88;1.52;;;;;;;24.66;45.23;101696.72;5091854;28;20478;-82
2022/08/26 05:45:07;;;;;;;3.03;1.10;;;;;;;24.59;45.23;101700.25;5092384;28;20036;-82
2022/08/26 05:47:33;;;;;;;2.53;0.75;;;;;;;24.53;45.44;101693.41;5091650;28;20067;-82
2022/08/26 05:49:59;;;;;;;5.63;1.30;;;;;;;24.48;45.71;101705.72;5091415;28;20056;-81
2022/08/26 05:52:25;;;;;;;1.38;0.82;;;;;;;24.46;46.00;101682.97;5092972;28;20047;-82
2022/08/26 05:54:51;;;;;;;1.45;1.05;;;;;;;24.44;45.83;101707.69;5091591;28;20368;-82
2022/08/26 05:57:17;;;;;;;1.83;0.90;;;;;;;24.44;45.86;101709.69;5091668;28;20093;-81
2022/08/26 05:59:43;;;;;;;2.20;1.20;;;;;;;24.42;46.32;101714.84;5092647;28;20104;-82
2022/08/26 06:02:08;;;;;;;2.47;0.90;;;;;;;24.40;46.33;101714.41;5091459;28;20111;-82
2022/08/26 06:04:34;;;;;;;3.45;1.35;;;;;;;24.39;46.44;101710.81;5091585;28;20470;-81
2022/08/26 06:07:00;;;;;;;6.55;1.60;;;;;;;24.32;46.90;101711.56;5108699;28;20066;-81
2022/08/26 06:09:26;;;;;;;1.52;1.08;;;;;;;24.28;46.52;101707.91;5091461;28;20044;-83
2022/08/26 06:11:51;;;;;;;4.68;2.90;;;;;;;24.25;47.12;101717.03;5092676;28;20035;-82
2022/08/26 06:14:18;;;;;;;3.67;1.85;;;;;;;24.29;46.84;101715.09;5090871;28;20048;-82
2022/08/26 06:16:44;;;;;;;8.13;1.48;;;;;;;24.44;46.51;101715.28;5091415;28;20115;-82
2022/08/26 06:19:14;;;;;;;4.82;1.40;;;;;;;24.47;46.95;101711.69;5092856;28;20106;-82
2022/08/26 06:21:40;;;;;;;;;;;;;;;24.47;47.18;101720.06;5091836;28;20490;-81
2022/08/26 06:27:03;;;;;;;5.68;1.40;;;;;;;24.68;46.63;101722.28;5092936;28;20097;-82
2022/08/26 06:29:33;;;;;;;1.65;1.00;;;;;;;24.60;47.00;101716.63;5091425;28;20055;-83
2022/08/26 06:32:00;;;;;;;2.25;1.35;;;;;;;24.75;46.80;101723.13;5091341;28;20035;-82
2022/08/26 06:34:28;;;;;;;4.82;4.10;;;;;;;24.88;46.47;101710.47;5091254;28;20032;-81
2022/08/26 06:36:57;;;;;;;3.05;1.83;;;;;;;24.82;46.98;101722.38;5091009;28;20111;-81
2022/08/26 06:39:23;;;;;;;3.28;2.00;;;;;;;24.83;47.32;101726.78;5092524;28;20026;-81
2022/08/26 06:41:49;;;;;;;4.65;2.20;;;;;;;24.68;47.43;101728.66;5092648;28;20479;-82
2022/08/26 06:44:15;;;;;;;3.15;2.35;;;;;;;24.74;47.67;101726.31;5091105;28;20023;-82
2022/08/26 06:46:42;;;;;;;3.88;2.58;;;;;;;24.81;47.51;101727.19;5092496;28;20538;-84
2022/08/26 06:49:08;;;;;;;4.18;2.45;;;;;;;24.86;47.41;101728.78;5091145;28;20028;-82
2022/08/26 06:51:37;;;;;;;5.72;2.13;;;;;;;24.89;47.34;101734.44;5091322;28;20020;-82
2022/08/26 06:54:04;;;;;;;3.50;2.25;;;;;;;24.87;47.82;101733.22;5092392;28;20111;-83
2022/08/26 06:56:41;;;;;;;2.75;2.03;;;;;;;24.96;48.09;101738.47;5092293;28;20028;-82
2022/08/26 06:59:08;;;;;;;3.63;2.25;;;;;;;24.80;48.51;101736.75;5091312;28;20454;-87
2022/08/26 07:01:38;;;;;;;4.80;2.30;;;;;;;24.89;48.78;101728.84;5091065;28;20035;-84
2022/08/26 07:04:05;;;;;;;4.22;2.45;;;;;;;24.94;48.25;101740.84;5090699;28;20106;-83
2022/08/26 07:06:36;;;;;;;4.15;2.38;;;;;;;24.98;48.56;101733.28;5087821;28;20040;-82
2022/08/26 07:09:05;;;;;;;4.63;2.20;;;;;;;25.06;48.30;101732.19;5090853;28;20032;-82
2022/08/26 07:11:32;;;;;;;4.18;2.60;;;;;;;25.06;48.69;101735.78;5090977;28;20474;-82
2022/08/26 07:13:58;;;;;;;7.78;2.38;;;;;;;25.10;48.61;101738.63;5090642;28;20040;-82
2022/08/26 07:16:26;;;;;;;3.42;2.30;;;;;;;25.02;49.02;101748.13;5090896;28;20016;-82
2022/08/26 07:18:52;;;;;;;4.65;2.22;;;;;;;25.06;48.83;101746.16;5090938;28;20016;-81
2022/08/26 07:21:19;;;;;;;2.30;1.77;;;;;;;25.07;48.62;101756.16;5092570;28;20390;-82
2022/08/26 07:23:45;;;;;;;2.38;1.67;;;;;;;25.02;48.95;101760.09;5096032;28;20043;-86
2022/08/26 07:26:15;;;;;;;2.78;1.98;;;;;;;25.06;48.79;101749.75;5094597;28;20028;-82
2022/08/26 07:28:45;;;;;;;3.30;2.20;;;;;;;25.13;48.70;101746.22;5095095;28;20027;-82
2022/08/26 07:31:11;;;;;;;;;;;;;;;25.03;49.51;101766.50;5090627;28;20035;-88
2022/08/26 07:33:38;;;;;;;3.90;2.83;;;;;;;25.03;48.84;101763.69;5094882;28;19916;-84
2022/08/26 07:36:05;;;;;;;4.10;2.83;;;;;;;25.05;49.11;101759.34;5093297;28;20024;-82
2022/08/26 07:38:32;;;;;;;3.35;2.67;;;;;;;25.13;49.13;101754.63;5093953;28;20443;-81
2022/08/26 07:40:57;;;;;;;4.25;2.85;;;;;;;25.15;48.97;101752.22;5093073;28;20077;-82
2022/08/26 07:43:23;;;;;;;4.32;2.92;;;;;;;25.08;49.16;101758.56;5092988;28;20027;-82
2022/08/26 07:45:49;;;;;;;4.05;2.50;;;;;;;25.09;49.48;101764.94;5092629;28;20486;-81
2022/08/26 07:48:15;;;;;;;6.43;3.08;;;;;;;25.20;49.26;101760.25;5092470;28;20051;-82
2022/08/26 07:50:41;;;;;;;4.35;2.95;;;;;;;25.22;49.64;101763.47;5092081;28;20039;-82
2022/08/26 07:53:07;;;;;;;3.13;2.40;;;;;;;25.40;49.12;101761.59;5092401;28;20059;-82
2022/08/26 07:55:33;;;;;;;3.50;2.47;;;;;;;25.35;49.17;101756.38;5091159;28;20020;-82
2022/08/26 07:57:59;;;;;;;3.30;2.50;;;;;;;25.36;49.63;101763.56;5091240;28;20026;-81
2022/08/26 08:00:26;;;;;;;4.05;2.65;;;;;;;25.50;49.01;101756.44;5091609;28;20016;-82
2022/08/26 08:02:52;;;;;;;2.47;1.92;;;;;;;25.56;49.27;101760.50;5093786;28;20083;-82
2022/08/26 08:05:20;;;;;;;2.20;1.35;;;;;;;25.39;49.81;101756.38;5094153;28;20024;-82
2022/08/26 08:07:46;;;;;;;1.92;1.73;;;;;;;25.52;49.53;101763.25;5094526;28;20057;-81
2022/08/26 08:10:17;;;;;;;1.00;0.90;;;;;;;25.36;49.77;101759.97;5095090;28;20462;-85
2022/08/26 08:12:43;;;;;;;0.63;0.63;;;;;;;25.39;50.05;101761.97;5093726;28;20081;-84
2022/08/26 08:15:12;;;;;;;1.40;0.95;;;;;;;25.49;49.91;101760.44;5093468;28;20062;-84
2022/08/26 08:17:39;;;;;;;2.20;1.23;;;;;;;25.61;49.37;101763.69;5110559;28;20108;-84
2022/08/26 08:20:07;;;;;;;1.08;0.98;;;;;;;25.58;49.85;101763.69;5093479;28;20118;-83
2022/08/26 08:22:34;;;;;;;1.20;0.70;;;;;;;25.50;49.70;101764.84;5093645;28;20032;-84
2022/08/26 08:25:00;;;;;;;1.17;0.70;;;;;;;25.49;49.47;101763.25;5093595;28;20028;-84
2022/08/26 08:27:27;;;;;;;0.70;0.70;;;;;;;25.42;49.67;101764.81;5093508;28;20047;-84
2022/08/26 08:29:53;;;;;;;1.08;0.98;;;;;;;25.35;49.71;101766.75;5094668;28;20425;-83
2022/08/26 08:32:20;;;;;;;0.80;0.75;;;;;;;25.27;50.02;101781.88;5110303;28;20027;-85
2022/08/26 08:34:46;;;;;;;1.27;0.90;;;;;;;25.40;49.39;101781.19;5094498;28;20071;-84
2022/08/26 08:37:11;;;;;;;0.80;0.63;;;;;;;25.43;49.43;101774.00;5093175;28;20055;-85
2022/08/26 08:39:37;;;;;;;1.48;0.80;;;;;;;25.32;49.48;101776.75;5094814;28;20031;-85
2022/08/26 08:42:21;;;;;;;1.35;0.60;;;;;;;25.46;49.28;101781.59;5093392;28;20525;-85
2022/08/26 08:44:49;;;;;;;1.60;0.90;;;;;;;25.56;48.99;101780.09;5093474;28;20478;-85
2022/08/26 08:47:32;;;;;;;1.40;0.80;;;;;;;25.57;49.25;101781.69;5094520;28;20036;-85
2022/08/26 08:50:24;;;;;;;1.35;0.90;;;;;;;25.59;48.80;101785.69;5094823;28;20106;-84
2022/08/26 08:53:19;;;;;;;2.10;0.90;;;;;;;25.58;49.16;101777.69;5087559;28;20066;-84
2022/08/26 08:55:47;;;;;;;3.55;2.30;;;;;;;25.42;49.26;101781.59;5092980;28;20055;-79
2022/08/26 08:58:19;;;;;;;3.83;1.75;;;;;;;25.53;49.00;101790.03;5092464;28;20394;-79
2022/08/26 09:01:01;;;;;;;4.38;2.15;;;;;;;25.55;49.15;101792.47;5092855;28;20081;-85
2022/08/26 09:03:45;;;;;;;2.28;1.80;;;;;;;25.42;48.72;101792.78;5091732;28;20027;-84
2022/08/26 09:06:21;;;;;;;4.10;2.08;;;;;;;25.52;48.55;101787.63;5092883;28;20031;-84
2022/08/26 09:08:49;;;;;;;2.47;1.83;;;;;;;25.57;48.32;101787.28;5091894;28;20179;-84
2022/08/26 09:11:16;;;;;;;2.30;1.98;;;;;;;25.65;47.98;101786.13;5091366;28;20028;-85
2022/08/26 09:13:49;;;;;;;2.92;1.85;;;;;;;25.60;47.95;101792.88;5092278;28;20448;-85
2022/08/26 09:16:22;;;;;;;2.45;1.80;;;;;;;25.36;48.31;101797.13;5091831;28;20156;-84
2022/08/26 09:19:22;;;;;;;1.83;1.45;;;;;;;25.44;48.05;101789.59;5093323;28;20046;-85
2022/08/26 09:21:56;;;;;;;2.53;1.58;;;;;;;25.48;48.13;101786.81;5089292;28;20063;-91
2022/08/26 09:24:22;;;;;;;2.28;1.50;;;;;;;25.48;47.72;101786.81;5099638;28;20027;-88
2022/08/26 09:26:48;;;;;;;1.92;1.33;;;;;;;25.28;48.07;101792.69;5105693;28;20027;-84
2022/08/26 09:29:29;;;;;;;2.05;1.13;;;;;;;25.09;48.77;101804.09;5113961;28;20026;-84
2022/08/26 09:32:23;;;;;;;1.92;1.27;;;;;;;24.98;48.49;101808.78;5112668;28;20023;-83
2022/08/26 09:34:52;;;;;;;2.70;1.33;;;;;;;24.81;48.89;101805.44;5113688;28;20028;-83
2022/08/26 09:37:37;;;;;;;4.72;1.17;;;;;;;24.99;48.43;101810.38;5129892;27;20419;-89
2022/08/26 09:40:26;;;;;;;1.20;0.93;;;;;;;25.17;48.45;101816.97;5114439;28;20068;-84
2022/08/26 09:43:15;;;;;;;3.50;0.95;;;;;;;25.29;48.18;101816.66;5130137;27;20027;-84
2022/08/26 09:45:44;;;;;;;0.75;0.75;;;;;;;25.33;48.39;101822.28;5124398;27;20547;-84
2022/08/26 09:48:10;;;;;;;4.80;1.53;;;;;;;25.49;47.68;101816.41;5093542;28;20016;-83
2022/08/26 09:50:52;;;;;;;0.95;0.90;;;;;;;25.52;47.88;101816.41;5109169;28;20664;-83
2022/08/26 09:53:22;;;;;;;1.50;0.80;;;;;;;25.58;47.45;101814.06;5092252;28;20024;-88
2022/08/26 09:56:08;;;;;;;2.45;1.13;;;;;;;25.73;47.30;101824.97;5093328;28;20508;-83
2022/08/26 09:58:40;;;;;;;0.77;0.63;;;;;;;25.47;48.02;101828.00;5109212;28;20028;-84
2022/08/26 10:01:13;;;;;;;0.60;0.60;;;;;;;25.70;47.38;101828.53;5109159;28;20389;-85
2022/08/26 10:03:39;;;;;;;1.05;0.80;;;;;;;25.68;47.12;101830.09;5092112;28;20024;-84
2022/08/26 10:06:21;;;;;;;0.52;0.52;;;;;;;25.41;47.18;101827.56;5093987;28;20111;-82
2022/08/26 10:08:56;;;;;;;5.93;1.30;;;;;;;25.50;47.49;101829.19;5109010;28;20474;-83
2022/08/26 10:11:38;;;;;;;1.02;0.90;;;;;;;25.51;47.28;101837.19;5093162;28;20016;-87
2022/08/26 10:14:14;;;;;;;0.68;0.68;;;;;;;25.59;46.76;101832.47;5092829;28;20040;-83
2022/08/26 10:16:55;;;;;;;1.35;0.73;;;;;;;25.80;47.03;101826.22;5091767;28;20028;-83
2022/08/26 10:19:27;;;;;;;3.30;0.90;;;;;;;25.69;47.30;101829.75;5093167;28;20012;-87
2022/08/26 10:21:58;;;;;;;0.73;0.70;;;;;;;25.68;46.51;101830.91;5108973;28;20028;-83
2022/08/26 10:24:39;;;;;;;1.27;0.95;;;;;;;25.87;46.24;101832.66;5108735;28;20036;-87
2022/08/26 10:27:33;;;;;;;1.23;1.13;;;;;;;25.87;46.27;101837.47;5093140;28;20031;-83
2022/08/26 10:30:31;;;;;;;1.75;1.00;;;;;;;25.98;46.30;101839.09;5108913;28;20119;-87
2022/08/26 10:33:11;;;;;;;1.23;1.00;;;;;;;26.07;45.99;101840.75;5091163;28;20035;-84
2022/08/26 10:35:46;;;;;;;0.80;0.80;;;;;;;26.12;46.10;101848.78;5092848;28;20673;-85
2022/08/26 10:38:17;;;;;;;1.17;1.08;;;;;;;26.08;45.64;101851.59;5108826;28;20139;-83
2022/08/26 10:40:59;;;;;;;1.30;0.77;;;;;;;26.00;45.53;101852.75;5091079;28;20405;-83
2022/08/26 10:43:51;;;;;;;2.20;1.00;;;;;;;26.21;45.41;101849.22;5108066;28;20474;-83
2022/08/26 10:46:21;;;;;;;0.88;0.70;;;;;;;26.23;45.05;101856.06;5086680;28;20043;-84
2022/08/26 10:48:56;;;;;;;;;;;;;;;25.97;43.94;101850.72;5091740;28;20044;-82
2022/08/26 10:51:40;;;;;;;1.38;0.80;;;;;;;26.29;44.63;101846.03;5091326;28;19912;-88
2022/08/26 10:54:23;;;;;;;0.98;0.70;;;;;;;26.35;44.28;101854.88;5092426;28;20482;-82
2022/08/26 10:57:07;;;;;;;1.95;1.00;;;;;;;26.47;44.35;101842.56;5094324;28;20060;-86
2022/08/26 10:59:51;;;;;;;1.27;1.08;;;;;;;26.12;44.55;101848.78;5112281;28;20082;-82
2022/08/26 11:02:27;;;;;;;3.42;1.60;;;;;;;26.07;43.96;101849.97;5095873;28;20031;-83
2022/08/26 11:05:01;;;;;;;3.65;1.67;;;;;;;26.21;43.62;101849.22;5096551;28;20024;-87
2022/08/26 11:07:42;;;;;;;3.10;1.73;;;;;;;26.27;43.54;101850.44;5112122;28;20031;-83
2022/08/26 11:10:29;;;;;;;3.80;2.15;;;;;;;26.26;43.86;101849.66;5112047;28;20030;-83
2022/08/26 11:13:05;;;;;;;2.72;1.25;;;;;;;26.41;43.76;101853.34;5095736;28;20028;-83
2022/08/26 11:15:31;;;;;;;1.65;1.00;;;;;;;26.31;43.84;101862.50;5095338;28;20390;-83
2022/08/26 11:18:03;;;;;;;1.85;1.30;;;;;;;26.52;43.77;101856.97;5111934;28;20024;-83
2022/08/26 11:20:35;;;;;;;1.63;1.02;;;;;;;26.60;43.20;101859.78;5111785;28;20502;-83
2022/08/26 11:23:19;;;;;;;5.28;1.13;;;;;;;26.55;43.19;101864.59;5096242;28;20902;-82
2022/08/26 11:25:59;;;;;;;2.13;1.20;;;;;;;26.71;42.78;101860.63;5110031;28;20127;-83
2022/08/26 11:28:34;;;;;;;1.45;1.02;;;;;;;26.65;43.05;101862.22;5110381;28;20024;-83
2022/08/26 11:31:01;;;;;;;2.80;1.30;;;;;;;26.55;42.61;101855.38;5094393;28;20020;-83
2022/08/26 11:33:47;;;;;;;2.88;1.30;;;;;;;26.33;42.60;101862.88;5094614;28;20024;-82
2022/08/26 11:36:31;;;;;;;1.55;1.20;;;;;;;26.55;42.60;101856.19;5110498;28;20119;-88
2022/08/26 11:38:57;;;;;;;2.03;1.40;;;;;;;26.64;42.29;101858.63;5109523;28;20036;-82
2022/08/26 11:41:28;;;;;;;2.78;1.38;;;;;;;26.79;41.99;101862.25;5093817;28;20020;-83
2022/08/26 11:43:54;;;;;;;2.42;1.40;;;;;;;26.90;41.94;101863.06;5109807;28;20032;-83
2022/08/26 11:46:27;;;;;;;3.08;1.30;;;;;;;26.99;41.40;101860.69;5111513;28;20478;-83